Time;durP1;ratioP1;P1;durP2;ratioP2;P2;SDS_P1;SDS_P2;PMS_P1;PMS_P2;Temp;Humidity;BMP_temperature;BMP_pressure;BME280_temperature;BME280_humidity;BME280_pressure;Samples;Min_cycle;Max_cycle;Signal;HPM_P1;HPM_P2
2022/07/21 00:00:58;;;;;;;6.35;5.18;;;;;26.30;96727.00;;;;8362413;28;20302;-62
2022/07/21 00:05:35;;;;;;;6.72;5.28;;;;;26.10;96723.00;;;;8361861;28;20263;-62
2022/07/21 00:09:38;;;;;;;6.50;4.63;;;;;25.90;96723.00;;;;8360960;28;20244;-63
2022/07/21 00:13:43;;;;;;;6.68;5.30;;;;;25.70;96725.00;;;;8357745;28;20682;-63
2022/07/21 00:17:46;;;;;;;7.00;5.07;;;;;25.60;96733.00;;;;8361061;28;20235;-62
2022/07/21 00:22:23;;;;;;;7.95;5.03;;;;;25.50;96716.00;;;;8361365;28;20212;-63
2022/07/21 00:26:26;;;;;;;6.45;4.70;;;;;25.40;96712.00;;;;8361286;28;20326;-61
2022/07/21 00:30:31;;;;;;;4.47;4.05;;;;;25.40;96706.00;;;;8360974;28;20247;-62
2022/07/21 00:35:07;;;;;;;7.13;4.40;;;;;25.30;96690.00;;;;8361086;28;20333;-63
2022/07/21 00:39:10;;;;;;;6.15;4.30;;;;;25.20;96677.00;;;;8360649;28;20231;-62
2022/07/21 00:43:13;;;;;;;5.15;3.90;;;;;25.20;96658.00;;;;8359296;28;20565;-63
2022/07/21 00:47:20;;;;;;;5.72;3.63;;;;;25.20;96641.00;;;;8360986;28;20669;-62
2022/07/21 00:51:51;;;;;;;4.35;3.95;;;;;25.10;96629.00;;;;8360612;28;20282;-63
2022/07/21 00:55:54;;;;;;;8.27;3.35;;;;;25.10;96612.00;;;;8360881;28;20308;-62
2022/07/21 00:59:57;;;;;;;3.97;3.50;;;;;25.10;96593.00;;;;8361579;28;20224;-62
2022/07/21 01:04:02;;;;;;;3.35;3.05;;;;;25.10;96598.00;;;;8360289;28;20307;-62
2022/07/21 01:08:36;;;;;;;5.60;3.38;;;;;25.10;96603.00;;;;8360621;28;20311;-62
2022/07/21 01:12:40;;;;;;;5.28;3.60;;;;;25.20;96614.00;;;;8359959;28;20220;-62
2022/07/21 01:16:44;;;;;;;4.18;3.78;;;;;25.20;96619.00;;;;8360362;28;20220;-62
2022/07/21 01:21:27;;;;;;;4.32;3.10;;;;;25.20;96591.00;;;;8359931;28;20307;-62
2022/07/21 01:25:31;;;;;;;4.63;3.47;;;;;25.20;96587.00;;;;8360348;28;20247;-62
2022/07/21 01:29:34;;;;;;;4.43;3.58;;;;;25.20;96586.00;;;;8359714;28;20316;-62
2022/07/21 01:33:37;;;;;;;4.30;3.38;;;;;25.10;96563.00;;;;8360142;28;20220;-62
2022/07/21 01:42:32;;;;;;;7.80;4.10;;;;;25.00;96507.00;;;;8360522;28;20303;-62
2022/07/21 01:46:38;;;;;;;3.42;3.13;;;;;24.90;96533.00;;;;8365301;28;20581;-62
2022/07/21 01:50:41;;;;;;;3.90;3.55;;;;;24.90;96524.00;;;;8366595;28;20237;-63
2022/07/21 01:54:46;;;;;;;5.30;3.92;;;;;24.80;96513.00;;;;8365345;28;20311;-63
2022/07/21 01:59:22;;;;;;;4.40;4.05;;;;;24.70;96536.00;;;;8356293;28;20220;-63
2022/07/21 02:03:26;;;;;;;5.40;4.25;;;;;24.70;96552.00;;;;8347088;28;20247;-63
2022/07/21 02:07:29;;;;;;;4.18;3.70;;;;;24.70;96581.00;;;;8346500;28;20228;-63
2022/07/21 02:11:34;;;;;;;5.47;4.18;;;;;24.60;96601.00;;;;8364685;28;20240;-63
2022/07/21 02:15:37;;;;;;;6.88;3.70;;;;;24.50;96607.00;;;;8365161;28;20304;-63
2022/07/21 02:20:14;;;;;;;7.45;3.85;;;;;24.30;96631.00;;;;8365364;28;20228;-63
2022/07/21 02:24:17;;;;;;;4.20;3.80;;;;;24.20;96625.00;;;;8364505;28;20296;-63
2022/07/21 02:28:23;;;;;;;4.18;3.78;;;;;24.10;96632.00;;;;8364382;28;20375;-64
2022/07/21 02:32:26;;;;;;;4.45;4.00;;;;;24.00;96639.00;;;;8364911;28;20315;-63
2022/07/21 02:36:29;;;;;;;5.65;4.15;;;;;23.90;96630.00;;;;8365207;28;20220;-63
2022/07/21 02:40:33;;;;;;;5.55;3.50;;;;;23.80;96646.00;;;;8363898;28;20316;-62
2022/07/21 02:44:37;;;;;;;5.15;3.58;;;;;23.70;96638.00;;;;8364283;28;20226;-63
2022/07/21 02:48:40;;;;;;;3.97;3.63;;;;;23.60;96641.00;;;;8364016;28;20228;-63
2022/07/21 02:52:43;;;;;;;4.10;3.72;;;;;23.60;96644.00;;;;8363357;28;20304;-62
2022/07/21 02:57:19;;;;;;;4.35;3.63;;;;;23.50;96645.00;;;;8363375;28;20647;-64
2022/07/21 03:01:23;;;;;;;3.88;3.58;;;;;23.50;96646.00;;;;8396875;22;20229;-63
2022/07/21 03:05:27;;;;;;;3.90;3.50;;;;;23.60;96639.00;;;;8384419;22;20229;-65
2022/07/21 03:09:30;;;;;;;4.13;3.60;;;;;23.70;96640.00;;;;8339956;28;20714;-65
2022/07/21 03:13:33;;;;;;;3.88;3.55;;;;;23.70;96644.00;;;;8338852;28;20682;-63
2022/07/21 03:17:38;;;;;;;4.47;3.53;;;;;23.80;96634.00;;;;8347534;28;20230;-65
2022/07/21 03:21:41;;;;;;;3.78;3.47;;;;;23.70;96635.00;;;;8351404;28;20593;-64
2022/07/21 03:25:45;;;;;;;5.32;3.58;;;;;23.70;96652.00;;;;8347970;28;20232;-64
2022/07/21 03:29:48;;;;;;;5.35;3.60;;;;;23.60;96666.00;;;;8349592;28;20643;-61
2022/07/21 03:33:52;;;;;;;3.70;3.40;;;;;23.50;96665.00;;;;8346155;28;20221;-64
2022/07/21 03:37:58;;;;;;;4.13;3.83;;;;;23.40;96662.00;;;;8338947;28;20581;-64
2022/07/21 03:42:01;;;;;;;4.53;4.13;;;;;23.30;96667.00;;;;8348406;28;20224;-64
2022/07/21 03:46:06;;;;;;;4.57;4.15;;;;;23.20;96667.00;;;;8336097;28;20242;-62
2022/07/21 03:50:14;;;;;;;5.80;4.20;;;;;23.00;96672.00;;;;8341020;28;20601;-64
2022/07/21 03:54:18;;;;;;;4.45;4.05;;;;;22.90;96673.00;;;;8329850;28;20228;-62
2022/07/21 03:58:21;;;;;;;4.32;3.83;;;;;22.90;96679.00;;;;8345142;28;20240;-63
2022/07/21 04:02:24;;;;;;;6.75;4.45;;;;;22.80;96688.00;;;;8357158;28;20231;-63
2022/07/21 04:06:29;;;;;;;5.53;4.18;;;;;22.80;96689.00;;;;8406854;28;20223;-62
2022/07/21 04:10:34;;;;;;;6.40;4.35;;;;;22.80;96701.00;;;;8403566;28;20302;-63
2022/07/21 04:14:38;;;;;;;8.95;4.47;;;;;22.80;96717.00;;;;8390178;28;20302;-63
2022/07/21 04:18:41;;;;;;;5.25;3.85;;;;;22.90;96705.00;;;;8382184;28;20235;-63
2022/07/21 04:22:47;;;;;;;6.18;3.88;;;;;23.00;96706.00;;;;8388722;28;20228;-64
2022/07/21 04:26:50;;;;;;;4.28;3.60;;;;;23.10;96704.00;;;;8392455;28;20222;-64
2022/07/21 04:30:53;;;;;;;4.20;3.80;;;;;23.20;96718.00;;;;8405583;28;21063;-63
2022/07/21 04:34:57;;;;;;;5.95;4.57;;;;;23.40;96718.00;;;;8401710;28;20215;-65
2022/07/21 04:39:02;;;;;;;4.95;4.13;;;;;23.40;96722.00;;;;8407777;28;20688;-64
2022/07/21 04:43:05;;;;;;;5.13;4.53;;;;;23.30;96715.00;;;;8403894;28;20241;-66
2022/07/21 04:47:08;;;;;;;5.25;3.83;;;;;23.20;96706.00;;;;8398095;28;20215;-64
2022/07/21 04:51:12;;;;;;;6.25;4.28;;;;;23.10;96669.00;;;;8405668;28;20666;-65
2022/07/21 04:55:17;;;;;;;4.70;4.20;;;;;23.00;96651.00;;;;8394715;28;20702;-65
2022/07/21 04:59:20;;;;;;;4.95;4.00;;;;;22.50;96674.00;;;;8407039;28;20752;-67
2022/07/21 05:03:23;;;;;;;4.72;4.18;;;;;21.90;96724.00;;;;8391272;28;20237;-75
2022/07/21 05:07:27;;;;;;;5.47;4.70;;;;;21.50;96773.00;;;;8407355;28;20215;-67
2022/07/21 05:11:32;;;;;;;6.05;5.07;;;;;21.10;96780.00;;;;8401838;28;20215;-65
2022/07/21 05:15:36;;;;;;;8.15;5.10;;;;;21.00;96784.00;;;;8400919;28;20215;-67
2022/07/21 05:19:39;;;;;;;8.63;5.30;;;;;20.90;96799.00;;;;8418360;28;20219;-68
2022/07/21 05:23:42;;;;;;;5.85;5.35;;;;;20.80;96793.00;;;;8393065;28;20314;-71
2022/07/21 05:27:47;;;;;;;7.15;5.28;;;;;20.70;96785.00;;;;8412473;28;20572;-69
2022/07/21 05:31:50;;;;;;;8.65;5.53;;;;;20.60;96797.00;;;;8406773;28;20230;-68
2022/07/21 05:35:53;;;;;;;10.23;6.50;;;;;20.50;96789.00;;;;8402416;28;20576;-66
2022/07/21 05:39:56;;;;;;;8.75;6.63;;;;;20.40;96787.00;;;;8408493;28;20248;-66
2022/07/21 05:44:01;;;;;;;11.98;7.20;;;;;20.40;96785.00;;;;8408706;28;20318;-64
2022/07/21 05:48:04;;;;;;;11.57;7.78;;;;;20.30;96799.00;;;;8407116;28;20229;-66
2022/07/21 05:52:08;;;;;;;8.77;7.68;;;;;20.20;96812.00;;;;8408536;28;20223;-66
2022/07/21 05:56:11;;;;;;;9.75;7.63;;;;;20.20;96818.00;;;;8412009;28;20261;-68
2022/07/21 06:00:17;;;;;;;12.80;8.55;;;;;20.20;96819.00;;;;8400316;28;20239;-68
2022/07/21 06:04:20;;;;;;;13.70;9.10;;;;;20.20;96811.00;;;;8409475;28;20330;-64
2022/07/21 06:08:24;;;;;;;16.17;10.02;;;;;20.10;96794.00;;;;8406487;28;20249;-64
2022/07/21 06:12:27;;;;;;;13.00;9.57;;;;;20.00;96803.00;;;;8412898;28;20224;-65
2022/07/21 06:16:32;;;;;;;13.38;9.77;;;;;20.00;96819.00;;;;8414912;28;20219;-64
2022/07/21 06:20:35;;;;;;;18.17;11.00;;;;;20.10;96807.00;;;;8399679;28;20310;-67
2022/07/21 06:24:39;;;;;;;16.27;11.07;;;;;20.10;96812.00;;;;8400392;28;20223;-66
2022/07/21 06:28:42;;;;;;;18.50;11.30;;;;;20.20;96822.00;;;;8394248;28;20224;-66
2022/07/21 06:32:47;;;;;;;22.35;11.85;;;;;20.20;96831.00;;;;8401922;28;20231;-67
2022/07/21 06:36:51;;;;;;;16.08;11.05;;;;;20.30;96825.00;;;;8401387;28;20223;-67
2022/07/21 06:40:55;;;;;;;22.50;12.00;;;;;20.40;96819.00;;;;8407180;28;20692;-67
2022/07/21 06:44:58;;;;;;;18.83;11.90;;;;;20.40;96828.00;;;;8410275;28;20223;-68
2022/07/21 06:49:03;;;;;;;15.48;11.15;;;;;20.50;96828.00;;;;8404387;28;20255;-69
2022/07/21 06:53:06;;;;;;;18.30;11.98;;;;;20.60;96835.00;;;;8392399;28;20310;-70
2022/07/21 06:57:09;;;;;;;20.33;12.40;;;;;20.70;96833.00;;;;8393516;28;20568;-70
2022/07/21 07:01:13;;;;;;;22.58;13.32;;;;;20.70;96827.00;;;;8397563;28;20231;-68
2022/07/21 07:05:18;;;;;;;19.08;12.00;;;;;20.60;96833.00;;;;8402165;28;20306;-68
2022/07/21 07:09:23;;;;;;;21.85;11.85;;;;;20.70;96861.00;;;;8416857;28;20288;-68
2022/07/21 07:13:26;;;;;;;17.70;12.95;;;;;20.70;96856.00;;;;8400376;28;20225;-69
2022/07/21 07:17:50;;;;;;;23.98;13.00;;;;;20.70;96835.00;;;;8399682;28;20672;-71
2022/07/21 07:21:55;;;;;;;20.45;12.93;;;;;20.80;96841.00;;;;8399532;28;20235;-69
2022/07/21 07:25:58;;;;;;;24.50;13.50;;;;;20.90;96846.00;;;;8404377;28;20994;-67
2022/07/21 07:30:02;;;;;;;33.70;14.50;;;;;20.90;96844.00;;;;8412270;28;20229;-69
2022/07/21 07:34:11;;;;;;;19.98;13.15;;;;;20.90;96854.00;;;;8402365;28;20254;-68
2022/07/21 07:38:16;;;;;;;20.55;13.75;;;;;21.00;96846.00;;;;8412297;28;20233;-67
2022/07/21 07:42:19;;;;;;;16.83;12.77;;;;;21.00;96840.00;;;;8404263;28;20239;-67
2022/07/21 07:46:23;;;;;;;23.15;14.43;;;;;21.10;96850.00;;;;8401212;28;20237;-68
2022/07/21 07:50:26;;;;;;;20.95;14.45;;;;;21.00;96856.00;;;;8409774;28;20428;-69
2022/07/21 07:54:31;;;;;;;21.58;14.13;;;;;21.00;96864.00;;;;8397645;28;20241;-71
2022/07/21 07:58:34;;;;;;;26.15;14.68;;;;;21.10;96863.00;;;;8406440;28;20742;-69
2022/07/21 08:02:37;;;;;;;25.08;14.90;;;;;21.30;96858.00;;;;8409775;28;20581;-68
2022/07/21 08:06:41;;;;;;;23.58;16.13;;;;;21.30;96870.00;;;;8404594;28;20223;-68
2022/07/21 08:10:46;;;;;;;24.98;14.93;;;;;21.30;96869.00;;;;8405418;28;20231;-69
2022/07/21 08:14:49;;;;;;;19.88;14.65;;;;;21.20;96880.00;;;;8386752;28;20231;-67
2022/07/21 08:18:53;;;;;;;22.20;15.32;;;;;21.10;96883.00;;;;8410034;28;20233;-66
2022/07/21 08:22:56;;;;;;;23.23;14.70;;;;;21.00;96884.00;;;;8395356;28;20889;-67
2022/07/21 08:27:02;;;;;;;22.88;15.40;;;;;21.00;96884.00;;;;8412045;28;20838;-68
2022/07/21 08:31:06;;;;;;;24.52;16.08;;;;;20.90;96892.00;;;;8404802;28;20219;-69
2022/07/21 08:35:09;;;;;;;23.50;14.95;;;;;20.90;96890.00;;;;8402900;28;20234;-69
2022/07/21 08:39:13;;;;;;;24.23;16.83;;;;;21.00;96890.00;;;;8407495;28;22262;-69
2022/07/21 08:43:18;;;;;;;24.17;15.65;;;;;21.10;96902.00;;;;8404295;28;20231;-68
2022/07/21 08:47:22;;;;;;;23.80;15.73;;;;;21.10;96903.00;;;;8396727;28;20225;-71
2022/07/21 08:51:26;;;;;;;27.40;16.27;;;;;21.10;96906.00;;;;8408082;28;20219;-70
2022/07/21 08:55:31;;;;;;;23.85;16.92;;;;;21.20;96915.00;;;;8410249;28;20221;-70
2022/07/21 08:59:36;;;;;;;28.17;17.25;;;;;21.30;96890.00;;;;8414838;28;20235;-73
2022/07/21 09:03:40;;;;;;;20.83;16.83;;;;;21.40;96900.00;;;;8411795;28;20722;-71
2022/07/21 09:07:54;;;;;;;27.35;17.83;;;;;21.60;96897.00;;;;8415892;28;20223;-72
2022/07/21 09:11:59;;;;;;;23.85;17.05;;;;;21.80;96898.00;;;;8413225;28;20364;-75
2022/07/21 09:16:04;;;;;;;23.20;17.23;;;;;21.90;96890.00;;;;8403139;28;20234;-77
2022/07/21 09:20:22;;;;;;;28.55;17.40;;;;;22.00;96890.00;;;;8401600;28;20611;-82
2022/07/21 09:24:29;;;;;;;27.10;18.27;;;;;22.00;96907.00;;;;8406820;28;20319;-80
2022/07/21 09:28:33;;;;;;;26.25;17.40;;;;;22.00;96906.00;;;;8410428;28;20281;-78
2022/07/21 09:32:38;;;;;;;24.20;17.00;;;;;22.00;96912.00;;;;8410363;28;20707;-80
2022/07/21 09:36:55;;;;;;;24.27;17.02;;;;;22.10;96901.00;;;;8408953;28;20247;-79
2022/07/21 09:41:06;;;;;;;24.70;18.20;;;;;22.20;96892.00;;;;8404319;28;20314;-79
2022/07/21 09:45:12;;;;;;;25.52;16.90;;;;;22.30;96899.00;;;;8407459;28;20223;-80
2022/07/21 09:49:32;;;;;;;25.60;17.50;;;;;22.40;96896.00;;;;8414831;28;20234;-78
2022/07/21 09:54:01;;;;;;;22.05;16.25;;;;;22.40;96886.00;;;;8414739;28;20710;-82
2022/07/21 09:58:04;;;;;;;25.10;17.67;;;;;22.40;96892.00;;;;8401912;28;20229;-81
2022/07/21 10:02:10;;;;;;;23.83;17.52;;;;;22.50;96902.00;;;;8400566;28;20227;-78
2022/07/21 10:06:17;;;;;;;28.90;18.58;;;;;22.50;96907.00;;;;8411556;28;20226;-83
2022/07/21 10:10:20;;;;;;;23.85;17.95;;;;;22.50;96925.00;;;;8403336;28;20304;-81
2022/07/21 10:14:26;;;;;;;22.13;16.95;;;;;22.50;96928.00;;;;8402477;28;20239;-79
2022/07/21 10:18:36;;;;;;;27.23;18.52;;;;;22.60;96927.00;;;;8389185;28;20780;-77
2022/07/21 10:23:03;;;;;;;28.10;18.33;;;;;22.50;96930.00;;;;8416007;28;20679;-78
2022/07/21 10:27:08;;;;;;;25.38;17.42;;;;;22.40;96922.00;;;;8409908;28;20231;-76
2022/07/21 10:31:16;;;;;;;24.33;17.23;;;;;22.40;96932.00;;;;8412329;28;20593;-76
2022/07/21 10:35:28;;;;;;;28.08;18.35;;;;;22.20;96918.00;;;;8410099;28;20237;-75
2022/07/21 10:39:34;;;;;;;28.95;19.10;;;;;22.10;96922.00;;;;8404885;28;20222;-72
2022/07/21 10:43:44;;;;;;;30.58;19.70;;;;;22.10;96910.00;;;;8411287;28;20231;-70
2022/07/21 10:47:47;;;;;;;29.48;20.33;;;;;22.00;96903.00;;;;8406883;28;20318;-70
2022/07/21 10:51:50;;;;;;;26.90;20.08;;;;;22.40;96915.00;;;;8409182;28;20219;-67
2022/07/21 10:55:57;;;;;;;29.27;19.60;;;;;22.60;96924.00;;;;8396827;28;20242;-68
2022/07/21 11:00:25;;;;;;;32.72;21.92;;;;;23.00;96916.00;;;;8409513;28;20314;-67
2022/07/21 11:04:29;;;;;;;30.85;20.13;;;;;23.10;96912.00;;;;8381005;28;20280;-69
2022/07/21 11:08:34;;;;;;;28.23;19.98;;;;;23.10;96911.00;;;;8401919;28;20222;-72
2022/07/21 11:12:59;;;;;;;30.42;21.40;;;;;23.00;96913.00;;;;8398203;28;20223;-69
2022/07/21 11:17:26;;;;;;;36.85;22.13;;;;;22.90;96913.00;;;;8399437;28;20545;-72
2022/07/21 11:21:29;;;;;;;31.55;21.60;;;;;22.90;96911.00;;;;8403446;28;20684;-70
2022/07/21 11:25:34;;;;;;;26.65;19.25;;;;;22.90;96911.00;;;;8408747;28;20326;-73
2022/07/21 11:29:42;;;;;;;29.27;19.35;;;;;22.90;96914.00;;;;8398048;28;20249;-71
2022/07/21 11:33:46;;;;;;;26.00;19.17;;;;;22.90;96913.00;;;;8389610;28;20227;-73
2022/07/21 11:37:50;;;;;;;26.33;19.38;;;;;23.20;96913.00;;;;8401552;28;20261;-76
2022/07/21 11:41:54;;;;;;;27.52;19.77;;;;;23.60;96908.00;;;;8394775;28;20314;-74
2022/07/21 11:46:00;;;;;;;26.83;18.73;;;;;24.00;96906.00;;;;8387233;28;20220;-75
2022/07/21 11:50:06;;;;;;;26.05;18.23;;;;;24.30;96902.00;;;;8397959;28;20285;-75
2022/07/21 11:54:21;;;;;;;24.38;18.92;;;;;24.70;96913.00;;;;8395900;28;20250;-76
2022/07/21 11:58:25;;;;;;;24.50;17.90;;;;;25.00;96904.00;;;;8399310;28;20231;-74
2022/07/21 12:02:31;;;;;;;21.15;16.38;;;;;25.50;96912.00;;;;8397563;28;20227;-76
2022/07/21 12:06:35;;;;;;;26.30;19.00;;;;;25.70;96896.00;;;;8404209;28;20219;-78
2022/07/21 12:10:39;;;;;;;22.42;17.02;;;;;25.80;96899.00;;;;8410344;28;20231;-78
2022/07/21 12:14:47;;;;;;;21.83;16.58;;;;;26.00;96890.00;;;;8404973;28;20640;-76
2022/07/21 12:19:11;;;;;;;20.75;16.50;;;;;26.20;96887.00;;;;8401905;28;20226;-75
2022/07/21 12:23:24;;;;;;;19.38;15.80;;;;;26.30;96879.00;;;;8393494;28;20586;-76
2022/07/21 12:27:28;;;;;;;22.58;15.93;;;;;26.50;96878.00;;;;8387870;28;20673;-75
2022/07/21 12:31:33;;;;;;;21.77;16.05;;;;;26.70;96882.00;;;;8401101;28;20227;-76
2022/07/21 12:35:40;;;;;;;17.63;14.82;;;;;27.00;96885.00;;;;8399093;28;20227;-75
2022/07/21 12:39:58;;;;;;;22.60;14.85;;;;;27.60;96881.00;;;;8404212;28;20307;-74
2022/07/21 12:44:02;;;;;;;21.45;15.30;;;;;28.70;96882.00;;;;8394732;28;20235;-76
2022/07/21 12:48:09;;;;;;;19.88;14.60;;;;;29.40;96879.00;;;;8389937;28;20807;-74
2022/07/21 12:52:15;;;;;;;19.00;14.90;;;;;29.80;96873.00;;;;8400156;28;20322;-76
2022/07/21 12:56:21;;;;;;;18.30;13.52;;;;;29.70;96871.00;;;;8395840;28;20353;-75
2022/07/21 13:00:25;;;;;;;17.27;13.77;;;;;29.60;96865.00;;;;8393730;28;20882;-73
2022/07/21 13:04:28;;;;;;;18.77;13.30;;;;;29.60;96869.00;;;;8394557;28;20249;-73
2022/07/21 13:08:35;;;;;;;14.50;12.40;;;;;30.00;96862.00;;;;8393977;28;20228;-71
2022/07/21 13:12:39;;;;;;;16.55;13.20;;;;;30.40;96862.00;;;;8391902;28;20330;-70
2022/07/21 13:16:42;;;;;;;15.07;12.57;;;;;30.80;96856.00;;;;8392723;28;20550;-71
2022/07/21 13:20:46;;;;;;;16.27;13.32;;;;;30.40;96848.00;;;;8393675;28;20228;-70
2022/07/21 13:24:50;;;;;;;14.43;12.23;;;;;30.00;96837.00;;;;8397667;28;20306;-74
2022/07/21 13:28:53;;;;;;;15.23;12.40;;;;;29.90;96839.00;;;;8404594;28;20234;-75
2022/07/21 13:32:58;;;;;;;16.08;11.85;;;;;29.80;96839.00;;;;8395804;28;20433;-75
2022/07/21 13:37:02;;;;;;;14.02;10.73;;;;;29.70;96836.00;;;;8409481;28;20229;-77
2022/07/21 13:41:26;;;;;;;15.02;12.38;;;;;29.60;96833.00;;;;8405861;28;20234;-81
2022/07/21 13:45:49;;;;;;;16.35;12.63;;;;;29.50;96828.00;;;;8392846;28;20579;-74
2022/07/21 13:49:52;;;;;;;16.17;12.18;;;;;29.50;96818.00;;;;8403109;28;20227;-75
2022/07/21 13:53:55;;;;;;;14.05;11.65;;;;;29.60;96820.00;;;;8404270;28;20227;-73
2022/07/21 13:58:01;;;;;;;18.38;12.50;;;;;30.50;96820.00;;;;8402264;28;20677;-73
2022/07/21 14:02:04;;;;;;;14.93;12.13;;;;;31.30;96812.00;;;;8404491;28;20253;-73
2022/07/21 14:06:08;;;;;;;12.82;11.27;;;;;32.50;96806.00;;;;8401214;28;20652;-74
2022/07/21 14:10:11;;;;;;;14.43;11.50;;;;;33.00;96811.00;;;;8397232;28;20215;-76
2022/07/21 14:14:21;;;;;;;13.45;11.10;;;;;33.20;96801.00;;;;8400597;28;20225;-73
2022/07/21 14:18:25;;;;;;;13.48;11.85;;;;;33.30;96804.00;;;;8406473;28;20223;-72
2022/07/21 14:22:28;;;;;;;11.70;10.25;;;;;33.50;96801.00;;;;8400566;28;20688;-73
2022/07/21 14:26:31;;;;;;;12.82;10.98;;;;;32.80;96804.00;;;;8403966;28;20230;-74
2022/07/21 14:30:36;;;;;;;12.57;10.65;;;;;33.30;96806.00;;;;8408833;28;20243;-74
2022/07/21 14:34:39;;;;;;;12.07;10.65;;;;;33.80;96802.00;;;;8404092;28;20254;-74
2022/07/21 14:38:43;;;;;;;12.20;10.35;;;;;34.00;96804.00;;;;8406744;28;20721;-74
2022/07/21 14:42:47;;;;;;;12.00;10.00;;;;;33.90;96805.00;;;;8413021;28;20237;-75
2022/07/21 14:46:52;;;;;;;12.00;10.48;;;;;33.60;96798.00;;;;8407568;28;20322;-75
2022/07/21 14:50:55;;;;;;;11.38;9.90;;;;;33.50;96803.00;;;;8404107;28;20227;-76
2022/07/21 14:54:59;;;;;;;12.73;9.75;;;;;33.60;96804.00;;;;8408535;28;20245;-75
2022/07/21 14:59:02;;;;;;;11.18;9.15;;;;;33.40;96807.00;;;;8409462;28;20258;-75
2022/07/21 15:03:06;;;;;;;12.48;9.68;;;;;33.40;96800.00;;;;8396133;28;20576;-75
2022/07/21 15:07:11;;;;;;;12.52;8.70;;;;;33.80;96790.00;;;;8403877;28;20231;-75
2022/07/21 15:11:16;;;;;;;10.85;9.02;;;;;34.40;96797.00;;;;8409397;28;20251;-74
2022/07/21 15:15:19;;;;;;;10.43;9.35;;;;;34.80;96791.00;;;;8408042;28;20306;-75
2022/07/21 15:19:24;;;;;;;9.63;8.73;;;;;34.70;96784.00;;;;8412862;28;20234;-75
2022/07/21 15:23:27;;;;;;;10.48;9.38;;;;;34.80;96783.00;;;;8408152;28;20251;-75
2022/07/21 15:27:30;;;;;;;12.57;9.70;;;;;34.80;96781.00;;;;8407655;28;20237;-74
2022/07/21 15:31:34;;;;;;;10.73;9.45;;;;;33.90;96774.00;;;;8405827;28;20224;-74
2022/07/21 15:35:39;;;;;;;10.45;9.45;;;;;34.00;96772.00;;;;8415677;28;20223;-75
2022/07/21 15:39:42;;;;;;;11.68;9.80;;;;;33.60;96770.00;;;;8404648;28;20299;-73
2022/07/21 15:43:46;;;;;;;10.65;9.55;;;;;33.30;96767.00;;;;8406267;28;20231;-74
2022/07/21 15:47:57;;;;;;;10.27;9.35;;;;;33.50;96764.00;;;;8397859;28;20632;-74
2022/07/21 15:52:02;;;;;;;12.73;9.82;;;;;33.90;96760.00;;;;8408850;28;20813;-74
2022/07/21 15:56:07;;;;;;;12.68;9.43;;;;;33.90;96758.00;;;;8405662;28;20599;-74
2022/07/21 16:00:13;;;;;;;12.82;9.68;;;;;33.90;96753.00;;;;8409072;28;20780;-74
2022/07/21 16:04:16;;;;;;;13.05;9.65;;;;;33.70;96740.00;;;;8403444;28;20233;-74
2022/07/21 16:08:21;;;;;;;11.23;9.80;;;;;33.40;96745.00;;;;8407268;28;20233;-74
2022/07/21 16:12:24;;;;;;;14.43;10.18;;;;;33.50;96740.00;;;;8409488;28;20245;-74
2022/07/21 16:16:29;;;;;;;11.48;10.30;;;;;33.60;96748.00;;;;8413367;28;20218;-74
2022/07/21 16:20:32;;;;;;;12.85;9.30;;;;;33.80;96744.00;;;;8409543;28;20223;-74
2022/07/21 16:24:37;;;;;;;11.60;10.15;;;;;33.80;96747.00;;;;8410077;28;20310;-74
2022/07/21 16:28:41;;;;;;;11.32;9.48;;;;;33.50;96741.00;;;;8403728;28;20231;-74
2022/07/21 16:32:46;;;;;;;11.82;9.27;;;;;33.40;96739.00;;;;8399802;28;20871;-73
2022/07/21 16:36:49;;;;;;;12.77;10.25;;;;;33.30;96731.00;;;;8410074;28;20612;-73
2022/07/21 16:40:56;;;;;;;11.90;9.77;;;;;33.20;96743.00;;;;8407241;28;20223;-74
2022/07/21 16:45:00;;;;;;;11.35;9.95;;;;;33.10;96742.00;;;;8414282;28;20313;-73
2022/07/21 16:49:04;;;;;;;10.80;9.68;;;;;33.20;96743.00;;;;8411943;28;20234;-74
2022/07/21 16:53:07;;;;;;;13.15;9.60;;;;;33.20;96747.00;;;;8396317;28;20302;-73
2022/07/21 16:57:12;;;;;;;11.52;9.50;;;;;33.00;96733.00;;;;8397485;28;20232;-71
2022/07/21 17:01:15;;;;;;;12.20;9.57;;;;;33.10;96748.00;;;;8409830;28;20229;-71
2022/07/21 17:05:18;;;;;;;12.35;9.43;;;;;33.40;96742.00;;;;8401061;28;20226;-73
2022/07/21 17:09:22;;;;;;;15.18;10.25;;;;;33.30;96742.00;;;;8400052;28;20580;-73
2022/07/21 17:13:27;;;;;;;9.05;8.30;;;;;33.20;96731.00;;;;8399942;28;20664;-72
2022/07/21 17:17:30;;;;;;;8.95;8.10;;;;;33.20;96734.00;;;;8405313;28;20219;-73
2022/07/21 17:21:33;;;;;;;11.75;8.82;;;;;33.30;96731.00;;;;8401848;28;20224;-71
2022/07/21 17:25:36;;;;;;;10.18;8.43;;;;;33.50;96728.00;;;;8407567;28;20233;-73
2022/07/21 17:29:41;;;;;;;9.82;8.93;;;;;33.50;96725.00;;;;8404028;28;20318;-72
2022/07/21 17:33:45;;;;;;;16.30;9.05;;;;;33.50;96721.00;;;;8408634;28;20235;-73
2022/07/21 17:37:48;;;;;;;9.70;8.80;;;;;33.40;96713.00;;;;8418093;28;20274;-72
2022/07/21 17:41:51;;;;;;;9.30;8.40;;;;;33.10;96715.00;;;;8420092;28;20231;-72
2022/07/21 17:45:56;;;;;;;10.50;9.05;;;;;32.20;96719.00;;;;8414539;28;20228;-71
2022/07/21 17:49:59;;;;;;;13.18;9.25;;;;;31.40;96718.00;;;;8416839;28;20250;-72
2022/07/21 17:54:03;;;;;;;10.02;9.02;;;;;30.70;96724.00;;;;8404978;28;20748;-71
2022/07/21 18:02:29;;;;;;;12.27;9.07;;;;;30.20;96725.00;;;;8405708;28;20636;-72
2022/07/21 18:06:32;;;;;;;10.38;8.70;;;;;30.00;96725.00;;;;8420097;28;20719;-70
2022/07/21 18:10:37;;;;;;;10.13;8.85;;;;;29.60;96720.00;;;;8405473;28;20216;-72
2022/07/21 18:14:41;;;;;;;10.93;9.75;;;;;29.40;96711.00;;;;8408569;28;20334;-70
2022/07/21 18:18:45;;;;;;;11.50;9.30;;;;;29.00;96717.00;;;;8391566;28;20307;-71
2022/07/21 18:22:49;;;;;;;11.65;9.82;;;;;28.70;96719.00;;;;8409757;28;20580;-72
2022/07/21 18:26:52;;;;;;;10.75;9.60;;;;;28.40;96723.00;;;;8413260;28;20223;-73
2022/07/21 18:30:55;;;;;;;11.00;9.80;;;;;28.00;96717.00;;;;8417064;28;20250;-71
2022/07/21 18:35:00;;;;;;;18.02;10.02;;;;;27.60;96717.00;;;;8412694;28;20235;-72
2022/07/21 18:39:04;;;;;;;12.10;9.98;;;;;27.30;96728.00;;;;8412879;28;20763;-71
2022/07/21 18:43:08;;;;;;;14.82;10.27;;;;;26.90;96722.00;;;;8418063;28;20239;-71
2022/07/21 18:47:11;;;;;;;12.13;9.57;;;;;26.50;96720.00;;;;8417873;28;20516;-71
2022/07/21 18:51:15;;;;;;;12.35;10.20;;;;;26.20;96719.00;;;;8403401;28;20692;-72
2022/07/21 18:55:19;;;;;;;11.88;10.50;;;;;25.80;96726.00;;;;8414904;28;20318;-70
2022/07/21 18:59:23;;;;;;;15.63;10.32;;;;;25.60;96721.00;;;;8398939;28;20227;-70
2022/07/21 19:03:26;;;;;;;13.30;10.57;;;;;25.30;96726.00;;;;8411882;28;20238;-70
2022/07/21 19:07:31;;;;;;;14.98;11.38;;;;;25.00;96731.00;;;;8404734;28;20226;-70
2022/07/21 19:11:49;;;;;;;14.73;11.52;;;;;24.60;96736.00;;;;8398901;28;20302;-71
2022/07/21 19:15:53;;;;;;;13.93;11.18;;;;;24.30;96740.00;;;;8402510;28;20596;-72
2022/07/21 19:19:57;;;;;;;13.15;11.60;;;;;24.10;96747.00;;;;8401886;28;20223;-72
2022/07/21 19:24:02;;;;;;;16.83;12.52;;;;;23.80;96748.00;;;;8399105;28;20274;-71
2022/07/21 19:28:06;;;;;;;14.80;11.90;;;;;23.50;96754.00;;;;8405340;28;20247;-72
2022/07/21 19:32:09;;;;;;;19.77;13.18;;;;;23.20;96762.00;;;;8403821;28;20749;-74
2022/07/21 19:36:12;;;;;;;17.33;13.05;;;;;23.00;96764.00;;;;8392789;28;20572;-73
2022/07/21 19:40:17;;;;;;;18.70;12.40;;;;;22.90;96760.00;;;;8402978;28;20219;-72
2022/07/21 19:44:20;;;;;;;17.10;12.88;;;;;22.80;96761.00;;;;8402831;28;20234;-74
2022/07/21 19:48:23;;;;;;;19.15;12.80;;;;;22.70;96768.00;;;;8401779;28;21189;-74
2022/07/21 19:52:27;;;;;;;15.25;12.85;;;;;22.60;96769.00;;;;8394327;28;20884;-74
2022/07/21 19:56:32;;;;;;;16.65;13.32;;;;;22.50;96764.00;;;;8387226;28;20302;-73
2022/07/21 20:00:37;;;;;;;17.85;12.52;;;;;22.40;96767.00;;;;8401802;28;20855;-71
2022/07/21 20:04:41;;;;;;;18.38;13.23;;;;;22.30;96770.00;;;;8387938;28;20225;-70
2022/07/21 20:08:44;;;;;;;18.08;13.00;;;;;22.30;96766.00;;;;8400429;28;20230;-71
2022/07/21 20:12:49;;;;;;;18.77;14.18;;;;;22.20;96771.00;;;;8405227;28;20223;-71
2022/07/21 20:16:52;;;;;;;18.23;12.40;;;;;22.20;96769.00;;;;8401847;28;20219;-72
2022/07/21 20:21:16;;;;;;;15.23;12.70;;;;;22.20;96779.00;;;;8403225;28;20231;-70